createdAt,value
2018-04-02T00:00:50.825Z,0.00
2018-04-02T00:01:50.998Z,0.00
2018-04-02T00:02:51.045Z,0.00
2018-04-02T00:03:51.068Z,0.00
2018-04-02T00:04:51.195Z,0.00
2018-04-02T00:05:51.287Z,0.00
2018-04-02T00:06:51.379Z,0.00
2018-04-02T00:07:51.507Z,0.00
2018-04-02T00:08:51.609Z,0.00
2018-04-02T00:09:51.777Z,0.00
2018-04-02T00:10:51.845Z,0.00
2018-04-02T00:11:51.826Z,0.00
2018-04-02T00:12:51.927Z,0.00
2018-04-02T00:13:52.021Z,0.00
2018-04-02T00:14:52.048Z,0.00
2018-04-02T00:15:52.168Z,0.00
2018-04-02T00:16:52.260Z,0.00
2018-04-02T00:17:52.427Z,0.00
2018-04-02T00:18:52.491Z,0.00
2018-04-02T00:19:52.585Z,0.00
2018-04-02T00:20:52.657Z,0.00
2018-04-02T00:21:52.883Z,0.00
2018-04-02T00:22:52.863Z,0.00
2018-04-02T00:23:52.949Z,0.00
2018-04-02T00:24:53.135Z,0.00
2018-04-02T00:25:53.191Z,0.00
2018-04-02T00:26:53.278Z,0.00
2018-04-02T00:27:53.375Z,0.00
2018-04-02T00:28:53.401Z,0.00
2018-04-02T00:29:53.492Z,0.00
2018-04-02T00:30:53.649Z,0.00
2018-04-02T00:31:53.610Z,0.00
2018-04-02T00:32:53.695Z,0.00
2018-04-02T00:33:53.858Z,0.00
2018-04-02T00:34:53.975Z,0.00
2018-04-02T00:35:54.083Z,0.00
2018-04-02T00:36:54.212Z,0.00
2018-04-02T00:37:54.341Z,0.00
2018-04-02T00:38:54.460Z,0.00
2018-04-02T00:39:54.569Z,0.00
2018-04-02T00:40:54.698Z,0.00
2018-04-02T00:41:54.803Z,0.00
2018-04-02T00:42:54.964Z,0.00
2018-04-02T00:43:55.040Z,0.00
2018-04-02T00:44:55.024Z,0.00
2018-04-02T00:45:55.147Z,0.00
2018-04-02T00:46:55.135Z,0.00
2018-04-02T00:47:55.254Z,0.00
2018-04-02T00:48:55.311Z,0.00
2018-04-02T00:49:55.456Z,0.00
2018-04-02T00:50:55.560Z,0.00
2018-04-02T00:51:55.642Z,0.00
2018-04-02T00:52:55.728Z,0.00
2018-04-02T00:53:55.845Z,0.00
2018-04-02T00:54:55.960Z,0.00
2018-04-02T00:55:56.053Z,0.00
2018-04-02T00:56:56.144Z,0.00
2018-04-02T00:57:56.280Z,0.00
2018-04-02T00:58:56.374Z,0.00
2018-04-02T00:59:56.491Z,0.00
2018-04-02T01:00:56.572Z,0.00
2018-04-02T01:01:56.670Z,0.00
2018-04-02T01:02:56.752Z,0.00
2018-04-02T01:03:56.886Z,0.00
2018-04-02T01:04:56.967Z,0.00
2018-04-02T01:05:57.070Z,0.00
2018-04-02T01:06:57.198Z,0.00
2018-04-02T01:07:57.367Z,0.00
2018-04-02T01:08:57.479Z,0.00
2018-04-02T01:09:57.593Z,0.00
2018-04-02T01:10:57.667Z,0.00
2018-04-02T01:11:57.742Z,0.00
2018-04-02T01:12:57.816Z,0.00
2018-04-02T01:13:57.929Z,0.00
2018-04-02T01:14:58.018Z,0.00
2018-04-02T01:15:58.109Z,0.00
2018-04-02T01:16:58.211Z,0.00
2018-04-02T01:17:58.289Z,0.00
2018-04-02T01:18:58.406Z,0.00
2018-04-02T01:19:58.508Z,0.00
2018-04-02T01:20:58.591Z,0.00
2018-04-02T01:21:58.726Z,0.00
2018-04-02T01:22:58.810Z,0.00
2018-04-02T01:23:58.898Z,0.00
2018-04-02T01:24:58.984Z,0.00
2018-04-02T01:25:59.099Z,0.00
2018-04-02T01:26:59.224Z,0.00
2018-04-02T01:27:59.300Z,0.00
2018-04-02T01:28:59.388Z,0.00
2018-04-02T01:29:59.465Z,0.00
2018-04-02T01:30:59.569Z,0.00
2018-04-02T01:31:59.650Z,0.00
2018-04-02T01:32:59.759Z,0.00
2018-04-02T01:33:59.869Z,0.00
2018-04-02T01:34:59.948Z,0.00
2018-04-02T01:36:00.034Z,0.00
2018-04-02T01:37:00.130Z,0.00
2018-04-02T01:38:00.245Z,0.00
2018-04-02T01:39:00.327Z,0.00
2018-04-02T01:40:00.406Z,0.00
2018-04-02T01:41:00.500Z,0.00
2018-04-02T01:42:00.600Z,0.00
2018-04-02T01:43:00.704Z,0.00
2018-04-02T01:44:00.812Z,0.00
2018-04-02T01:45:00.905Z,0.00
2018-04-02T01:46:00.977Z,0.00
2018-04-02T01:47:01.114Z,0.00
2018-04-02T01:48:01.227Z,0.00
2018-04-02T01:49:01.304Z,0.00
2018-04-02T01:50:01.404Z,0.00
2018-04-02T01:51:01.580Z,0.00
2018-04-02T01:52:01.567Z,0.00
2018-04-02T01:53:01.653Z,0.00
2018-04-02T01:54:01.730Z,0.00
2018-04-02T01:55:01.882Z,0.00
2018-04-02T01:56:01.963Z,0.00
2018-04-02T01:57:02.090Z,0.00
2018-04-02T01:58:02.173Z,0.00
2018-04-02T01:59:02.295Z,0.00
2018-04-02T02:00:02.508Z,0.00
2018-04-02T02:01:02.411Z,0.00
2018-04-02T02:02:02.549Z,0.00
2018-04-02T02:03:02.637Z,0.00
2018-04-02T02:04:02.748Z,0.00
2018-04-02T02:05:02.827Z,0.00
2018-04-02T02:06:02.955Z,0.00
2018-04-02T02:07:02.969Z,0.00
2018-04-02T02:08:03.111Z,0.00
2018-04-02T02:09:03.214Z,0.00
2018-04-02T02:10:03.299Z,0.00
2018-04-02T02:11:03.532Z,0.00
2018-04-02T02:12:03.495Z,0.00
2018-04-02T02:13:03.593Z,0.00
2018-04-02T02:14:03.670Z,0.00
2018-04-02T02:15:03.760Z,0.00
2018-04-02T02:16:03.913Z,0.00
2018-04-02T02:17:03.933Z,0.00
2018-04-02T02:18:04.047Z,0.00
2018-04-02T02:19:04.084Z,0.00
2018-04-02T02:20:04.197Z,0.00
2018-04-02T02:21:04.226Z,0.00
2018-04-02T02:22:04.356Z,0.00
2018-04-02T02:23:04.456Z,0.00
2018-04-02T02:24:04.640Z,0.00
2018-04-02T02:25:04.611Z,0.00
2018-04-02T02:26:04.694Z,0.00
2018-04-02T02:27:04.784Z,0.00
2018-04-02T02:28:04.882Z,0.00
2018-04-02T02:29:05.013Z,0.00
2018-04-02T02:30:05.105Z,0.00
2018-04-02T02:31:05.189Z,0.00
2018-04-02T02:32:05.270Z,0.00
2018-04-02T02:33:05.364Z,0.00
2018-04-02T02:34:05.449Z,0.00
2018-04-02T02:35:05.544Z,0.00
2018-04-02T02:36:05.729Z,0.00
2018-04-02T02:37:05.714Z,0.00
2018-04-02T02:38:05.805Z,0.00
2018-04-02T02:39:05.898Z,0.00
2018-04-02T02:40:06.016Z,0.00
2018-04-02T02:41:06.156Z,0.00
2018-04-02T02:42:06.262Z,0.00
2018-04-02T02:43:06.350Z,0.00
2018-04-02T02:44:06.447Z,0.00
2018-04-02T02:45:06.525Z,0.00
2018-04-02T02:46:06.615Z,0.00
2018-04-02T02:47:06.701Z,0.00
2018-04-02T02:48:06.792Z,0.00
2018-04-02T02:49:06.886Z,0.00
2018-04-02T02:50:06.971Z,0.00
2018-04-02T02:51:07.055Z,0.00
2018-04-02T02:52:07.141Z,0.00
2018-04-02T02:53:07.229Z,0.00
2018-04-02T02:54:07.338Z,0.00
2018-04-02T02:55:07.420Z,0.00
2018-04-02T02:56:07.498Z,0.00
2018-04-02T02:57:07.595Z,0.00
2018-04-02T02:58:07.678Z,0.00
2018-04-02T02:59:07.774Z,0.00
2018-04-02T03:00:07.861Z,0.00
2018-04-02T03:01:07.959Z,0.00
2018-04-02T03:02:08.039Z,0.00
2018-04-02T03:03:08.135Z,0.00
2018-04-02T03:04:08.228Z,0.00
2018-04-02T03:05:08.318Z,0.00
2018-04-02T03:06:08.410Z,0.00
2018-04-02T03:07:08.501Z,0.00
2018-04-02T03:08:08.595Z,0.00
2018-04-02T03:09:08.690Z,0.00
2018-04-02T03:10:08.777Z,0.00
2018-04-02T03:11:08.858Z,0.00
2018-04-02T03:12:08.953Z,0.00
2018-04-02T03:13:09.047Z,0.00
2018-04-02T03:14:09.128Z,0.00
2018-04-02T03:15:09.219Z,0.00
2018-04-02T03:16:09.304Z,0.00
2018-04-02T03:17:09.395Z,0.00
2018-04-02T03:18:09.486Z,0.00
2018-04-02T03:19:09.575Z,0.00
2018-04-02T03:20:09.663Z,0.00
2018-04-02T03:21:09.752Z,0.00
2018-04-02T03:22:09.842Z,0.00
2018-04-02T03:23:09.928Z,0.00
2018-04-02T03:24:10.018Z,0.00
2018-04-02T03:25:10.106Z,0.00
2018-04-02T03:26:10.192Z,0.00
2018-04-02T03:27:10.285Z,0.00
2018-04-02T03:28:10.389Z,0.00
2018-04-02T03:29:10.484Z,0.00
2018-04-02T03:30:10.578Z,0.00
2018-04-02T03:31:10.655Z,0.00
2018-04-02T03:32:10.741Z,0.00
2018-04-02T03:33:10.832Z,0.00
2018-04-02T03:34:10.919Z,0.00
2018-04-02T03:35:11.009Z,0.00
2018-04-02T03:36:11.100Z,0.00
2018-04-02T03:37:11.196Z,0.00
2018-04-02T03:38:11.279Z,0.00
2018-04-02T03:39:11.370Z,0.00
2018-04-02T03:40:11.461Z,0.00
2018-04-02T03:41:11.544Z,0.00
2018-04-02T03:42:11.636Z,0.00
2018-04-02T03:43:11.726Z,0.00
2018-04-02T03:44:11.815Z,0.00
2018-04-02T03:45:11.905Z,0.00
2018-04-02T03:46:11.992Z,0.00
2018-04-02T03:47:12.082Z,0.00
2018-04-02T03:48:12.170Z,0.00
2018-04-02T03:49:12.255Z,0.00
2018-04-02T03:50:12.347Z,0.00
2018-04-02T03:51:12.439Z,0.00
2018-04-02T03:52:12.575Z,0.00
2018-04-02T03:53:12.662Z,0.00
2018-04-02T03:54:12.747Z,0.00
2018-04-02T03:55:12.837Z,0.00
2018-04-02T03:56:12.926Z,0.00
2018-04-02T03:57:13.012Z,0.00
2018-04-02T03:58:13.103Z,0.00
2018-04-02T03:59:13.194Z,0.00
2018-04-02T04:00:13.270Z,0.00
2018-04-02T04:01:13.375Z,0.00
2018-04-02T04:02:13.462Z,0.00
2018-04-02T04:03:13.557Z,0.00
2018-04-02T04:04:13.645Z,0.00
2018-04-02T04:05:13.737Z,0.00
2018-04-02T04:06:13.840Z,0.00
2018-04-02T04:07:13.935Z,0.00
2018-04-02T04:08:14.020Z,0.00
2018-04-02T04:09:14.113Z,0.00
2018-04-02T04:10:14.201Z,0.00
2018-04-02T04:11:14.297Z,0.00
2018-04-02T04:12:14.411Z,0.00
2018-04-02T04:13:14.476Z,0.00
2018-04-02T04:14:14.562Z,0.00
2018-04-02T04:15:14.650Z,0.00
2018-04-02T04:16:14.737Z,0.00
2018-04-02T04:17:14.849Z,0.00
2018-04-02T04:18:14.917Z,0.00
2018-04-02T04:19:14.996Z,0.00
2018-04-02T04:20:15.084Z,0.00
2018-04-02T04:21:15.171Z,0.00
2018-04-02T04:22:15.265Z,0.00
2018-04-02T04:23:15.356Z,4.00
2018-04-02T04:24:15.446Z,4.00
2018-04-02T04:25:15.534Z,4.00
2018-04-02T04:26:15.621Z,4.00
2018-04-02T04:27:15.711Z,4.00
2018-04-02T04:28:15.802Z,0.00
2018-04-02T04:29:15.892Z,4.00
2018-04-02T04:30:15.984Z,4.00
2018-04-02T04:31:16.084Z,8.00
2018-04-02T04:32:16.176Z,4.00
2018-04-02T04:33:16.264Z,8.00
2018-04-02T04:34:16.353Z,8.00
2018-04-02T04:35:16.441Z,8.00
2018-04-02T04:36:16.531Z,8.00
2018-04-02T04:37:16.620Z,8.00
2018-04-02T04:38:16.712Z,12.00
2018-04-02T04:39:16.796Z,12.00
2018-04-02T04:40:16.931Z,12.00
2018-04-02T04:41:16.975Z,16.00
2018-04-02T04:42:17.066Z,20.00
2018-04-02T04:43:17.156Z,24.00
2018-04-02T04:44:17.238Z,28.00
2018-04-02T04:45:17.342Z,32.00
2018-04-02T04:46:17.429Z,40.00
2018-04-02T04:47:17.524Z,48.00
2018-04-02T04:48:17.611Z,60.00
2018-04-02T04:49:17.699Z,68.00
2018-04-02T04:50:17.810Z,80.00
2018-04-02T04:51:17.898Z,88.00
2018-04-02T04:52:17.992Z,104.00
2018-04-02T04:53:18.080Z,120.00
2018-04-02T04:54:18.167Z,136.00
2018-04-02T04:55:18.258Z,156.00
2018-04-02T04:56:18.347Z,168.00
2018-04-02T04:57:18.436Z,180.00
2018-04-02T04:58:18.524Z,192.00
2018-04-02T04:59:18.615Z,204.00
2018-04-02T05:00:18.698Z,220.00
2018-04-02T05:01:18.789Z,232.00
2018-04-02T05:02:18.879Z,248.00
2018-04-02T05:03:18.972Z,260.00
2018-04-02T05:04:19.059Z,276.00
2018-04-02T05:05:19.147Z,296.00
2018-04-02T05:06:19.235Z,316.00
2018-04-02T05:07:19.324Z,344.00
2018-04-02T05:08:20.164Z,376.00
2018-04-02T05:09:20.123Z,404.00
2018-04-02T05:10:19.927Z,428.00
2018-04-02T05:11:19.689Z,456.00
2018-04-02T05:12:19.898Z,488.00
2018-04-02T05:13:19.862Z,524.00
2018-04-02T05:14:19.908Z,552.00
2018-04-02T05:15:20.148Z,564.00
2018-04-02T05:16:20.118Z,572.00
2018-04-02T05:17:20.272Z,560.00
2018-04-02T05:18:20.383Z,552.00
2018-04-02T05:19:20.458Z,572.00
2018-04-02T05:20:20.570Z,624.00
2018-04-02T05:21:20.707Z,672.00
2018-04-02T05:22:20.792Z,720.00
2018-04-02T05:23:21.014Z,716.00
2018-04-02T05:24:21.177Z,696.00
2018-04-02T05:25:21.140Z,704.00
2018-04-02T05:26:21.237Z,740.00
2018-04-02T05:27:21.364Z,756.00
2018-04-02T05:28:21.487Z,752.00
2018-04-02T05:29:21.441Z,752.00
2018-04-02T05:30:21.483Z,732.00
2018-04-02T05:31:21.564Z,716.00
2018-04-02T05:32:21.679Z,732.00
2018-04-02T05:33:21.743Z,748.00
2018-04-02T05:34:21.829Z,772.00
2018-04-02T05:35:21.917Z,812.00
2018-04-02T05:36:22.058Z,888.00
2018-04-02T05:37:22.150Z,960.00
2018-04-02T05:38:22.198Z,1024.00
2018-04-02T05:39:22.271Z,1076.00
2018-04-02T05:40:22.341Z,1128.00
2018-04-02T05:41:22.431Z,1168.00
2018-04-02T05:42:22.549Z,1204.00
2018-04-02T05:43:22.667Z,1184.00
2018-04-02T05:44:22.791Z,1220.00
2018-04-02T05:45:22.880Z,1304.00
2018-04-02T05:46:22.997Z,1348.00
2018-04-02T05:47:23.095Z,1388.00
2018-04-02T05:48:23.104Z,1420.00
2018-04-02T05:49:23.203Z,1404.00
2018-04-02T05:50:23.285Z,1316.00
2018-04-02T05:51:23.361Z,1244.00
2018-04-02T05:52:23.614Z,1228.00
2018-04-02T05:53:23.610Z,1248.00
2018-04-02T05:54:23.745Z,1300.00
2018-04-02T05:55:23.912Z,1384.00
2018-04-02T05:56:23.872Z,1448.00
2018-04-02T05:57:24.019Z,1488.00
2018-04-02T05:58:24.103Z,1524.00
2018-04-02T05:59:24.206Z,1572.00
2018-04-02T06:00:24.304Z,1620.00
2018-04-02T06:01:24.470Z,1684.00
2018-04-02T06:02:24.543Z,1744.00
2018-04-02T06:03:24.660Z,1804.00
2018-04-02T06:04:24.797Z,1916.00
2018-04-02T06:05:24.833Z,2084.00
2018-04-02T06:06:24.929Z,2200.00
2018-04-02T06:07:25.014Z,2216.00
2018-04-02T06:08:25.112Z,2164.00
2018-04-02T06:09:25.210Z,2144.00
2018-04-02T06:10:25.356Z,2136.00
2018-04-02T06:11:25.336Z,2120.00
2018-04-02T06:12:25.430Z,2168.00
2018-04-02T06:13:25.517Z,2188.00
2018-04-02T06:14:25.627Z,2180.00
2018-04-02T06:15:25.732Z,2224.00
2018-04-02T06:16:25.823Z,2288.00
2018-04-02T06:17:25.949Z,2344.00
2018-04-02T06:18:26.040Z,2448.00
2018-04-02T06:19:26.152Z,2588.00
2018-04-02T06:20:26.239Z,2708.00
2018-04-02T06:21:26.333Z,2752.00
2018-04-02T06:22:26.483Z,2732.00
2018-04-02T06:23:26.532Z,2660.00
2018-04-02T06:24:26.643Z,2968.00
2018-04-02T06:25:26.736Z,3520.00
2018-04-02T06:26:26.848Z,4412.00
2018-04-02T06:27:26.953Z,3760.00
2018-04-02T06:28:27.053Z,3752.00
2018-04-02T06:29:27.138Z,3616.00
2018-04-02T06:30:27.224Z,3712.00
2018-04-02T06:31:27.316Z,3876.00
2018-04-02T06:32:27.408Z,4196.00
2018-04-02T06:33:27.516Z,4532.00
2018-04-02T06:34:27.626Z,4752.00
2018-04-02T06:35:27.717Z,4528.00
2018-04-02T06:36:27.829Z,4296.00
2018-04-02T06:37:27.933Z,4416.00
2018-04-02T06:38:28.009Z,3968.00
2018-04-02T06:39:28.152Z,3640.00
2018-04-02T06:40:28.232Z,3740.00
2018-04-02T06:41:28.313Z,3940.00
2018-04-02T06:42:28.470Z,4112.00
2018-04-02T06:43:28.567Z,4288.00
2018-04-02T06:44:28.648Z,4444.00
2018-04-02T06:45:28.740Z,4644.00
2018-04-02T06:46:28.842Z,4916.00
2018-04-02T06:47:28.949Z,4624.00
2018-04-02T06:48:29.035Z,4520.00
2018-04-02T06:49:29.113Z,4412.00
2018-04-02T06:50:29.196Z,4304.00
2018-04-02T06:51:29.287Z,4264.00
2018-04-02T06:52:29.396Z,4432.00
2018-04-02T06:53:29.493Z,4580.00
2018-04-02T06:54:29.667Z,4436.00
2018-04-02T06:55:29.689Z,4304.00
2018-04-02T06:56:29.779Z,4408.00
2018-04-02T06:57:29.873Z,4796.00
2018-04-02T06:58:29.955Z,5132.00
2018-04-02T06:59:30.046Z,5252.00
2018-04-02T07:00:30.134Z,4708.00
2018-04-02T07:01:30.217Z,4292.00
2018-04-02T07:02:30.319Z,4236.00
2018-04-02T07:03:30.440Z,4588.00
2018-04-02T07:04:30.557Z,4796.00
2018-04-02T07:05:30.637Z,4924.00
2018-04-02T07:06:30.742Z,5276.00
2018-04-02T07:07:30.835Z,5308.00
2018-04-02T07:08:30.942Z,5696.00
2018-04-02T07:09:31.093Z,5692.00
2018-04-02T07:10:31.178Z,6672.00
2018-04-02T07:11:31.276Z,5712.00
2018-04-02T07:12:31.370Z,5576.00
2018-04-02T07:13:31.530Z,5764.00
2018-04-02T07:14:31.578Z,6020.00
2018-04-02T07:15:31.682Z,6368.00
2018-04-02T07:16:31.779Z,7196.00
2018-04-02T07:17:31.889Z,6940.00
2018-04-02T07:18:32.002Z,6688.00
2018-04-02T07:19:32.102Z,6884.00
2018-04-02T07:20:32.181Z,6856.00
2018-04-02T07:21:32.277Z,6780.00
2018-04-02T07:22:32.357Z,6740.00
2018-04-02T07:23:32.460Z,6604.00
2018-04-02T07:24:32.572Z,7488.00
2018-04-02T07:25:32.644Z,6620.00
2018-04-02T07:26:32.767Z,6452.00
2018-04-02T07:27:32.847Z,6840.00
2018-04-02T07:28:32.934Z,6732.00
2018-04-02T07:29:33.057Z,6884.00
2018-04-02T07:30:33.148Z,6204.00
2018-04-02T07:31:33.297Z,6048.00
2018-04-02T07:32:33.379Z,6060.00
2018-04-02T07:33:33.482Z,6176.00
2018-04-02T07:34:33.574Z,6240.00
2018-04-02T07:35:33.661Z,6108.00
2018-04-02T07:36:33.750Z,6048.00
2018-04-02T07:37:33.845Z,6056.00
2018-04-02T07:38:33.966Z,6040.00
2018-04-02T07:39:34.055Z,6024.00
2018-04-02T07:40:34.149Z,6076.00
2018-04-02T07:41:34.245Z,6160.00
2018-04-02T07:42:34.335Z,6056.00
2018-04-02T07:43:34.484Z,6016.00
2018-04-02T07:44:34.572Z,6132.00
2018-04-02T07:45:34.673Z,6344.00
2018-04-02T07:46:34.760Z,6256.00
2018-04-02T07:47:34.848Z,6120.00
2018-04-02T07:48:34.944Z,5984.00
2018-04-02T07:49:35.031Z,6188.00
2018-04-02T07:50:35.171Z,7248.00
2018-04-02T07:51:35.294Z,7064.00
2018-04-02T07:52:35.288Z,6644.00
2018-04-02T07:53:35.397Z,6172.00
2018-04-02T07:54:35.499Z,6084.00
2018-04-02T07:55:35.578Z,6000.00
2018-04-02T07:56:35.669Z,5968.00
2018-04-02T07:57:35.764Z,6164.00
2018-04-02T07:58:35.863Z,6364.00
2018-04-02T07:59:35.953Z,6432.00
2018-04-02T08:00:36.044Z,6796.00
2018-04-02T08:01:36.138Z,6948.00
2018-04-02T08:02:36.230Z,6896.00
2018-04-02T08:03:36.316Z,7108.00
2018-04-02T08:04:36.419Z,6940.00
2018-04-02T08:05:36.502Z,7144.00
2018-04-02T08:06:36.586Z,7352.00
2018-04-02T08:07:36.685Z,7340.00
2018-04-02T08:08:36.783Z,7244.00
2018-04-02T08:09:36.890Z,7180.00
2018-04-02T08:10:37.601Z,7108.00
2018-04-02T08:11:37.075Z,7060.00
2018-04-02T08:12:37.173Z,7040.00
2018-04-02T08:13:37.276Z,7116.00
2018-04-02T08:14:37.372Z,7152.00
2018-04-02T08:15:37.463Z,7200.00
2018-04-02T08:16:37.558Z,7308.00
2018-04-02T08:17:37.651Z,7520.00
2018-04-02T08:18:37.747Z,7788.00
2018-04-02T08:19:37.841Z,7916.00
2018-04-02T08:20:37.930Z,8128.00
2018-04-02T08:21:38.022Z,8152.00
2018-04-02T08:22:38.116Z,8284.00
2018-04-02T08:23:38.220Z,8600.00
2018-04-02T08:24:38.311Z,8584.00
2018-04-02T08:25:38.403Z,8764.00
2018-04-02T08:26:38.498Z,8356.00
2018-04-02T08:27:38.592Z,8456.00
2018-04-02T08:28:38.691Z,8564.00
2018-04-02T08:29:38.786Z,8284.00
2018-04-02T08:30:38.883Z,8360.00
2018-04-02T08:31:38.977Z,8336.00
2018-04-02T08:32:39.122Z,8412.00
2018-04-02T08:33:39.168Z,8176.00
2018-04-02T08:34:39.261Z,8196.00
2018-04-02T08:35:39.352Z,8192.00
2018-04-02T08:36:39.449Z,8252.00
2018-04-02T08:37:39.541Z,8100.00
2018-04-02T08:38:39.650Z,8180.00
2018-04-02T08:39:39.734Z,7928.00
2018-04-02T08:40:39.823Z,7980.00
2018-04-02T08:41:39.918Z,7792.00
2018-04-02T08:42:40.014Z,7928.00
2018-04-02T08:43:40.107Z,7840.00
2018-04-02T08:44:40.204Z,7660.00
2018-04-02T08:45:40.298Z,7664.00
2018-04-02T08:46:40.392Z,7744.00
2018-04-02T08:47:40.484Z,7676.00
2018-04-02T08:48:40.576Z,7708.00
2018-04-02T08:49:40.680Z,7692.00
2018-04-02T08:50:40.773Z,7756.00
2018-04-02T08:51:40.868Z,7824.00
2018-04-02T08:52:40.957Z,7692.00
2018-04-02T08:53:41.053Z,7620.00
2018-04-02T08:54:41.147Z,7648.00
2018-04-02T08:55:41.258Z,7744.00
2018-04-02T08:56:41.353Z,7636.00
2018-04-02T08:57:41.451Z,7576.00
2018-04-02T08:58:41.551Z,7152.00
2018-04-02T08:59:41.634Z,6796.00
2018-04-02T09:00:41.758Z,6516.00
2018-04-02T09:01:41.836Z,6304.00
2018-04-02T09:02:41.931Z,5836.00
2018-04-02T09:03:42.017Z,5464.00
2018-04-02T09:04:42.116Z,5296.00
2018-04-02T09:05:42.205Z,5296.00
2018-04-02T09:06:42.300Z,5928.00
2018-04-02T09:07:42.393Z,5900.00
2018-04-02T09:08:42.489Z,6956.00
2018-04-02T09:09:42.585Z,6760.00
2018-04-02T09:10:42.679Z,6880.00
2018-04-02T09:11:42.777Z,6788.00
2018-04-02T09:12:42.865Z,6740.00
2018-04-02T09:13:42.960Z,6816.00
2018-04-02T09:14:43.061Z,7208.00
2018-04-02T09:15:43.153Z,7476.00
2018-04-02T09:16:43.247Z,7500.00
2018-04-02T09:17:43.339Z,7228.00
2018-04-02T09:18:43.432Z,7420.00
2018-04-02T09:19:43.538Z,7624.00
2018-04-02T09:20:43.625Z,7596.00
2018-04-02T09:21:43.718Z,7308.00
2018-04-02T09:22:43.811Z,7164.00
2018-04-02T09:23:43.905Z,7136.00
2018-04-02T09:24:44.055Z,7088.00
2018-04-02T09:25:44.602Z,7252.00
2018-04-02T09:26:44.219Z,6964.00
2018-04-02T09:27:44.321Z,7144.00
2018-04-02T09:28:44.418Z,7084.00
2018-04-02T09:29:44.559Z,7284.00
2018-04-02T09:30:44.603Z,7440.00
2018-04-02T09:31:44.702Z,7672.00
2018-04-02T09:32:44.797Z,7192.00
2018-04-02T09:33:44.902Z,6300.00
2018-04-02T09:34:44.993Z,7032.00
2018-04-02T09:35:45.092Z,7564.00
2018-04-02T09:36:45.193Z,7488.00
2018-04-02T09:37:45.290Z,7364.00
2018-04-02T09:41:17.466Z,9324.00
2018-04-02T09:42:17.562Z,9520.00
2018-04-02T09:43:17.657Z,8440.00
2018-04-02T09:44:17.760Z,7756.00
2018-04-02T09:45:17.849Z,9180.00
2018-04-02T09:46:17.946Z,7352.00
2018-04-02T09:47:18.046Z,5960.00
2018-04-02T09:48:18.139Z,5388.00
2018-04-02T09:49:18.235Z,5136.00
2018-04-02T09:50:18.332Z,5040.00
2018-04-02T09:51:18.478Z,5092.00
2018-04-02T09:52:18.505Z,5192.00
2018-04-02T09:53:18.590Z,5356.00
2018-04-02T09:54:18.709Z,5284.00
2018-04-02T09:55:18.791Z,5732.00
2018-04-02T09:56:18.884Z,6216.00
2018-04-02T09:57:18.981Z,6624.00
2018-04-02T09:58:19.079Z,7408.00
2018-04-02T09:59:19.195Z,8928.00
2018-04-02T10:00:19.255Z,9288.00
2018-04-02T10:01:19.340Z,8368.00
2018-04-02T10:02:19.428Z,9476.00
2018-04-02T10:03:20.057Z,8472.00
2018-04-02T10:04:19.715Z,8964.00
2018-04-02T10:05:19.815Z,8712.00
2018-04-02T10:06:19.912Z,8528.00
2018-04-02T10:07:19.992Z,8236.00
2018-04-02T10:08:20.092Z,7392.00
2018-04-02T10:09:20.206Z,7180.00
2018-04-02T10:10:20.356Z,7340.00
2018-04-02T10:11:20.378Z,7660.00
2018-04-02T10:12:20.476Z,8020.00
2018-04-02T10:13:20.596Z,8460.00
2018-04-02T10:14:20.814Z,9368.00
2018-04-02T10:15:20.741Z,9168.00
2018-04-02T10:16:20.860Z,8392.00
2018-04-02T10:17:20.978Z,8008.00
2018-04-02T10:18:21.057Z,7600.00
2018-04-02T10:19:21.146Z,7516.00
2018-04-02T10:20:21.291Z,7296.00
2018-04-02T10:21:21.370Z,7768.00
2018-04-02T10:22:21.477Z,7512.00
2018-04-02T10:23:21.632Z,7172.00
2018-04-02T10:24:21.708Z,6912.00
2018-04-02T10:25:21.848Z,6976.00
2018-04-02T10:26:21.965Z,7456.00
2018-04-02T10:27:22.070Z,7356.00
2018-04-02T10:28:22.321Z,8620.00
2018-04-02T10:29:22.412Z,8500.00
2018-04-02T10:30:22.411Z,9100.00
2018-04-02T10:31:22.543Z,9216.00
2018-04-02T10:32:22.646Z,8584.00
2018-04-02T10:33:22.753Z,8276.00
2018-04-02T10:34:22.836Z,8312.00
2018-04-02T10:35:22.934Z,7680.00
2018-04-02T10:36:23.030Z,8156.00
2018-04-02T10:37:23.163Z,8824.00
2018-04-02T10:38:23.256Z,8536.00
2018-04-02T10:39:23.393Z,8572.00
2018-04-02T10:40:23.508Z,9200.00
2018-04-02T10:41:23.713Z,9944.00
2018-04-02T10:42:23.645Z,10604.00
2018-04-02T10:43:23.689Z,10048.00
2018-04-02T10:44:23.777Z,8628.00
2018-04-02T10:45:23.914Z,8076.00
2018-04-02T10:46:24.001Z,8052.00
2018-04-02T10:47:24.099Z,7828.00
2018-04-02T10:48:24.227Z,7504.00
2018-04-02T10:49:24.360Z,7184.00
2018-04-02T10:50:24.451Z,6884.00
2018-04-02T10:51:24.534Z,7044.00
2018-04-02T10:52:24.649Z,6476.00
2018-04-02T10:53:24.735Z,6480.00
2018-04-02T10:54:24.837Z,6384.00
2018-04-02T10:55:24.928Z,8632.00
2018-04-02T10:56:25.008Z,6632.00
2018-04-02T10:57:25.129Z,8716.00
2018-04-02T10:58:25.211Z,6604.00
2018-04-02T10:59:25.356Z,6240.00
2018-04-02T11:00:25.441Z,5824.00
2018-04-02T11:01:25.532Z,5676.00
2018-04-02T11:02:25.668Z,5604.00
2018-04-02T11:03:25.820Z,5244.00
2018-04-02T11:04:25.965Z,4980.00
2018-04-02T11:05:26.045Z,4884.00
2018-04-02T11:06:26.148Z,5212.00
2018-04-02T11:07:26.263Z,5492.00
2018-04-02T11:08:26.370Z,7032.00
2018-04-02T11:09:26.458Z,5860.00
2018-04-02T11:10:26.554Z,6128.00
2018-04-02T11:11:26.654Z,6332.00
2018-04-02T11:12:26.759Z,6384.00
2018-04-02T11:13:26.873Z,8172.00
2018-04-02T11:14:26.951Z,8216.00
2018-04-02T11:15:27.041Z,9188.00
2018-04-02T11:16:27.146Z,8800.00
2018-04-02T11:17:27.272Z,7864.00
2018-04-02T11:18:27.387Z,8020.00
2018-04-02T11:19:27.471Z,7368.00
2018-04-02T11:20:27.557Z,8364.00
2018-04-02T11:21:27.664Z,8780.00
2018-04-02T11:22:27.758Z,8156.00
2018-04-02T11:23:27.853Z,7824.00
2018-04-02T11:24:27.949Z,7532.00
2018-04-02T11:25:28.051Z,7392.00
2018-04-02T11:26:28.193Z,6548.00
2018-04-02T11:27:28.270Z,6400.00
2018-04-02T11:28:28.358Z,6756.00
2018-04-02T11:29:28.443Z,9336.00
2018-04-02T11:30:28.538Z,10220.00
2018-04-02T11:31:28.624Z,10616.00
2018-04-02T11:32:28.729Z,9664.00
2018-04-02T11:33:28.817Z,8492.00
2018-04-02T11:34:28.895Z,8148.00
2018-04-02T11:35:28.992Z,8508.00
2018-04-02T11:36:29.074Z,10368.00
2018-04-02T11:37:29.168Z,9960.00
2018-04-02T11:38:29.275Z,9408.00
2018-04-02T11:39:29.365Z,9164.00
2018-04-02T11:40:29.479Z,9688.00
2018-04-02T11:41:29.585Z,8716.00
2018-04-02T11:42:29.679Z,6712.00
2018-04-02T11:43:29.771Z,6464.00
2018-04-02T11:44:29.869Z,7744.00
2018-04-02T11:45:29.967Z,6840.00
2018-04-02T11:46:30.064Z,6240.00
2018-04-02T11:47:30.168Z,6024.00
2018-04-02T11:48:30.247Z,5908.00
2018-04-02T11:49:30.334Z,7524.00
2018-04-02T11:50:30.461Z,7944.00
2018-04-02T11:51:30.548Z,8428.00
2018-04-02T11:52:30.643Z,7880.00
2018-04-02T11:53:30.741Z,8028.00
2018-04-02T11:54:30.841Z,8088.00
2018-04-02T11:55:30.934Z,6664.00
2018-04-02T11:56:31.049Z,7480.00
2018-04-02T11:57:31.142Z,6180.00
2018-04-02T11:58:31.231Z,6176.00
2018-04-02T11:59:31.330Z,6668.00
2018-04-02T12:00:31.424Z,5536.00
2018-04-02T12:01:31.519Z,7156.00
2018-04-02T12:02:31.614Z,7180.00
2018-04-02T12:03:31.717Z,7100.00
2018-04-02T12:04:31.814Z,7704.00
2018-04-02T12:05:31.911Z,7892.00
2018-04-02T12:06:32.004Z,6960.00
2018-04-02T12:07:32.130Z,6540.00
2018-04-02T12:08:32.221Z,6784.00
2018-04-02T12:09:32.317Z,7348.00
2018-04-02T12:10:32.416Z,7940.00
2018-04-02T12:11:32.518Z,7808.00
2018-04-02T12:12:32.614Z,7728.00
2018-04-02T12:13:32.715Z,6620.00
2018-04-02T12:14:32.832Z,6812.00
2018-04-02T12:15:32.936Z,7276.00
2018-04-02T12:16:33.019Z,7624.00
2018-04-02T12:17:33.119Z,7720.00
2018-04-02T12:18:33.214Z,7700.00
2018-04-02T12:19:33.318Z,8104.00
2018-04-02T12:20:33.415Z,8008.00
2018-04-02T12:21:33.511Z,8176.00
2018-04-02T12:22:33.611Z,7568.00
2018-04-02T12:23:33.711Z,7556.00
2018-04-02T12:24:33.800Z,7648.00
2018-04-02T12:25:33.891Z,8048.00
2018-04-02T12:26:33.988Z,8184.00
2018-04-02T12:27:34.084Z,8464.00
2018-04-02T12:28:34.172Z,8940.00
2018-04-02T12:29:34.289Z,8724.00
2018-04-02T12:30:34.364Z,8832.00
2018-04-02T12:31:34.464Z,8440.00
2018-04-02T12:32:34.558Z,8308.00
2018-04-02T12:33:34.659Z,8308.00
2018-04-02T12:34:34.759Z,8168.00
2018-04-02T12:35:34.854Z,8116.00
2018-04-02T12:36:34.949Z,7772.00
2018-04-02T12:37:35.050Z,7784.00